LFJL 221130Z AUTO 22022KT CAVOK 10/03 Q1027 TEMPO 23017G27KT

ElémentsDécodage
LFJL Station météo située sur l'aérodrome de METZ Nancy-Lorraine
221130Z émis le 22 du mois à 11h30 UTC
AUTO Bulletin édité par un automate
22022KT vent du 220°, 22 noeuds
CAVOK Ceiling And Visibility OK
- Visibilité de 10 Km ou plus
- Pas de nuage au-dessous de 1500m ou au-dessous de l'altitude minimale du secteur la plus élevée (si>1500m) et absence de CB
- pas de temps présent significatif
10/03 température 10°C, point de rosée 03°C
 soit une humidité relative de 62%
Q1027 la pression au niveau de la mer (QNH) est de 1027 hPa
TEMPO fluctuation temporaire prévue
23017G27KT vent du 230°, moyenne: 17 noeuds, avec rafales à 27 noeuds